sensor_id;sensor_type;location;lat;lon;timestamp;pressure;altitude;pressure_sealevel;temperature;humidity
70841;BME280;58465;51.534;9.934;2023-05-02T00:00:17;99930.75;;;14.62;58.43
70841;BME280;58465;51.534;9.934;2023-05-02T00:02:46;99919.19;;;14.60;58.73
70841;BME280;58465;51.534;9.934;2023-05-02T00:05:12;99925.31;;;14.64;58.68
70841;BME280;58465;51.534;9.934;2023-05-02T00:07:37;99924.31;;;14.66;58.66
70841;BME280;58465;51.534;9.934;2023-05-02T00:10:03;99930.63;;;14.65;58.95
70841;BME280;58465;51.534;9.934;2023-05-02T00:12:49;99933.25;;;14.67;59.28
70841;BME280;58465;51.534;9.934;2023-05-02T00:15:14;99934.13;;;14.67;58.92
70841;BME280;58465;51.534;9.934;2023-05-02T00:17:43;99935.00;;;14.68;59.21
70841;BME280;58465;51.534;9.934;2023-05-02T00:20:10;99925.31;;;14.64;59.36
70841;BME280;58465;51.534;9.934;2023-05-02T00:22:36;99933.31;;;14.65;59.22
70841;BME280;58465;51.534;9.934;2023-05-02T00:25:05;99930.63;;;14.65;59.45
70841;BME280;58465;51.534;9.934;2023-05-02T00:27:33;99927.63;;;14.73;59.24
70841;BME280;58465;51.534;9.934;2023-05-02T00:30:01;99930.31;;;14.73;59.08
70841;BME280;58465;51.534;9.934;2023-05-02T00:32:31;99921.81;;;14.62;59.09
70841;BME280;58465;51.534;9.934;2023-05-02T00:34:57;99933.31;;;14.65;58.94
70841;BME280;58465;51.534;9.934;2023-05-02T00:37:25;99938.69;;;14.65;58.91
70841;BME280;58465;51.534;9.934;2023-05-02T00:39:51;99922.81;;;14.59;59.04
70841;BME280;58465;51.534;9.934;2023-05-02T00:42:17;99921.94;;;14.59;59.25
70841;BME280;58465;51.534;9.934;2023-05-02T00:44:43;99933.44;;;14.62;59.02
70841;BME280;58465;51.534;9.934;2023-05-02T00:47:11;99937.00;;;14.63;58.88
70841;BME280;58465;51.534;9.934;2023-05-02T00:52:59;99928.75;;;14.45;59.53
70841;BME280;58465;51.534;9.934;2023-05-02T00:55:25;99929.91;;;14.38;59.40
70841;BME280;58465;51.534;9.934;2023-05-02T00:57:51;99933.53;;;14.37;59.46
70841;BME280;58465;51.534;9.934;2023-05-02T01:00:18;99937.19;;;14.35;59.90
70841;BME280;58465;51.534;9.934;2023-05-02T01:02:51;99928.31;;;14.33;59.47
70841;BME280;58465;51.534;9.934;2023-05-02T01:05:33;99939.06;;;14.33;59.61
70841;BME280;58465;51.534;9.934;2023-05-02T01:08:30;99938.19;;;14.32;59.73
70841;BME280;58465;51.534;9.934;2023-05-02T01:14:06;99941.22;;;14.23;59.76
70841;BME280;58465;51.534;9.934;2023-05-02T01:16:40;99937.91;;;14.17;59.81
70841;BME280;58465;51.534;9.934;2023-05-02T01:19:33;99939.78;;;14.15;60.07
70841;BME280;58465;51.534;9.934;2023-05-02T01:22:06;99940.56;;;14.18;59.95
70841;BME280;58465;51.534;9.934;2023-05-02T01:24:58;99936.16;;;14.16;59.88
70841;BME280;58465;51.534;9.934;2023-05-02T01:27:46;99954.09;;;14.15;60.13
70841;BME280;58465;51.534;9.934;2023-05-02T01:30:22;99944.69;;;14.03;60.03
70841;BME280;58465;51.534;9.934;2023-05-02T01:32:53;99949.03;;;14.07;60.30
70841;BME280;58465;51.534;9.934;2023-05-02T01:35:23;99947.25;;;14.06;60.39
70841;BME280;58465;51.534;9.934;2023-05-02T01:37:53;99962.50;;;14.06;60.29
70841;BME280;58465;51.534;9.934;2023-05-02T01:40:23;99948.84;;;13.89;61.31
70841;BME280;58465;51.534;9.934;2023-05-02T01:42:55;99951.78;;;13.83;61.58
70841;BME280;58465;51.534;9.934;2023-05-02T01:45:22;99949.00;;;13.84;61.56
70841;BME280;58465;51.534;9.934;2023-05-02T01:47:53;99960.34;;;13.92;61.44
70841;BME280;58465;51.534;9.934;2023-05-02T01:50:24;99963.19;;;13.88;61.38
70841;BME280;58465;51.534;9.934;2023-05-02T01:52:53;99963.09;;;13.91;61.68
70841;BME280;58465;51.534;9.934;2023-05-02T01:55:22;99953.00;;;13.97;61.17
70841;BME280;58465;51.534;9.934;2023-05-02T01:57:53;99959.13;;;14.01;60.97
70841;BME280;58465;51.534;9.934;2023-05-02T02:00:22;99958.19;;;14.02;61.09
70841;BME280;58465;51.534;9.934;2023-05-02T02:06:14;99957.03;;;14.09;61.04
70841;BME280;58465;51.534;9.934;2023-05-02T02:08:40;99963.97;;;14.15;60.89
70841;BME280;58465;51.534;9.934;2023-05-02T02:11:20;99967.53;;;14.15;60.43
70841;BME280;58465;51.534;9.934;2023-05-02T02:13:54;99958.84;;;14.08;60.66
70841;BME280;58465;51.534;9.934;2023-05-02T02:16:30;99959.75;;;14.07;60.80
70841;BME280;58465;51.534;9.934;2023-05-02T02:19:12;99954.50;;;14.04;60.51
70841;BME280;58465;51.534;9.934;2023-05-02T02:21:41;99967.81;;;14.07;60.92
70841;BME280;58465;51.534;9.934;2023-05-02T02:24:10;99971.31;;;14.09;60.73
70841;BME280;58465;51.534;9.934;2023-05-02T02:26:39;99970.69;;;14.03;60.70
70841;BME280;58465;51.534;9.934;2023-05-02T02:29:11;99980.31;;;14.08;60.57
70841;BME280;58465;51.534;9.934;2023-05-02T02:31:39;99990.75;;;14.16;60.51
70841;BME280;58465;51.534;9.934;2023-05-02T02:34:05;99988.66;;;14.01;61.11
70841;BME280;58465;51.534;9.934;2023-05-02T02:42:47;100002.16;;;13.99;62.55
70841;BME280;58465;51.534;9.934;2023-05-02T02:45:26;100004.41;;;13.87;62.89
70841;BME280;58465;51.534;9.934;2023-05-02T02:50:39;100012.41;;;13.88;63.77
70841;BME280;58465;51.534;9.934;2023-05-02T02:53:52;100010.50;;;13.92;63.59
70841;BME280;58465;51.534;9.934;2023-05-02T02:56:36;100005.28;;;13.87;62.89
70841;BME280;58465;51.534;9.934;2023-05-02T02:59:27;100014.25;;;13.86;63.46
70841;BME280;58465;51.534;9.934;2023-05-02T03:02:06;100017.81;;;13.87;63.16
70841;BME280;58465;51.534;9.934;2023-05-02T03:05:02;100020.31;;;13.93;63.32
70841;BME280;58465;51.534;9.934;2023-05-02T03:07:35;100026.56;;;13.93;62.67
70841;BME280;58465;51.534;9.934;2023-05-02T03:10:06;100029.00;;;13.99;63.16
70841;BME280;58465;51.534;9.934;2023-05-02T03:12:37;100029.81;;;14.01;62.89
70841;BME280;58465;51.534;9.934;2023-05-02T03:18:21;100035.59;;;13.91;63.19
70841;BME280;58465;51.534;9.934;2023-05-02T03:20:50;100049.88;;;13.91;63.40
70841;BME280;58465;51.534;9.934;2023-05-02T03:23:16;100040.91;;;13.92;63.29
70841;BME280;58465;51.534;9.934;2023-05-02T03:25:44;100052.84;;;13.84;63.42
70841;BME280;58465;51.534;9.934;2023-05-02T03:28:20;100051.09;;;13.83;63.56
70841;BME280;58465;51.534;9.934;2023-05-02T03:30:58;100055.03;;;13.72;63.83
70841;BME280;58465;51.534;9.934;2023-05-02T03:33:32;100054.34;;;13.66;64.32
70841;BME280;58465;51.534;9.934;2023-05-02T03:36:06;100053.75;;;13.58;65.07
70841;BME280;58465;51.534;9.934;2023-05-02T03:38:44;100056.66;;;13.52;65.29
70841;BME280;58465;51.534;9.934;2023-05-02T03:41:13;100061.13;;;13.51;65.69
70841;BME280;58465;51.534;9.934;2023-05-02T03:43:44;100058.59;;;13.47;65.31
70841;BME280;58465;51.534;9.934;2023-05-02T03:46:11;100069.41;;;13.45;65.81
70841;BME280;58465;51.534;9.934;2023-05-02T03:48:39;100070.91;;;13.54;65.27
70841;BME280;58465;51.534;9.934;2023-05-02T03:51:17;100054.81;;;13.54;64.93
70841;BME280;58465;51.534;9.934;2023-05-02T03:53:43;100063.50;;;13.60;64.85
70841;BME280;58465;51.534;9.934;2023-05-02T03:56:19;100059.28;;;13.53;64.70
70841;BME280;58465;51.534;9.934;2023-05-02T03:58:51;100071.56;;;13.60;64.67
70841;BME280;58465;51.534;9.934;2023-05-02T04:01:26;100075.13;;;13.61;64.61
70841;BME280;58465;51.534;9.934;2023-05-02T04:03:54;100082.94;;;13.67;64.18
70841;BME280;58465;51.534;9.934;2023-05-02T04:06:22;100068.69;;;13.65;64.19
70841;BME280;58465;51.534;9.934;2023-05-02T04:09:18;100085.53;;;13.70;64.50
70841;BME280;58465;51.534;9.934;2023-05-02T04:11:49;100085.81;;;13.62;64.62
70841;BME280;58465;51.534;9.934;2023-05-02T04:14:18;100095.94;;;13.54;64.91
70841;BME280;58465;51.534;9.934;2023-05-02T04:16:49;100105.72;;;13.55;65.16
70841;BME280;58465;51.534;9.934;2023-05-02T04:19:16;100093.25;;;13.54;65.13
70841;BME280;58465;51.534;9.934;2023-05-02T04:21:56;100106.28;;;13.65;64.70
70841;BME280;58465;51.534;9.934;2023-05-02T04:24:43;100118.44;;;13.75;64.44
70841;BME280;58465;51.534;9.934;2023-05-02T04:27:22;100117.09;;;13.63;64.61
70841;BME280;58465;51.534;9.934;2023-05-02T04:29:55;100127.44;;;13.48;65.30
70841;BME280;58465;51.534;9.934;2023-05-02T04:32:42;100138.06;;;13.51;64.96
70841;BME280;58465;51.534;9.934;2023-05-02T04:35:10;100136.97;;;13.56;64.92
70841;BME280;58465;51.534;9.934;2023-05-02T04:37:39;100134.25;;;13.58;64.62
70841;BME280;58465;51.534;9.934;2023-05-02T04:40:17;100141.16;;;13.65;64.67
70841;BME280;58465;51.534;9.934;2023-05-02T04:42:44;100138.69;;;13.59;64.61
70841;BME280;58465;51.534;9.934;2023-05-02T04:45:11;100138.69;;;13.59;64.77
70841;BME280;58465;51.534;9.934;2023-05-02T04:47:41;100148.53;;;13.58;64.68
70841;BME280;58465;51.534;9.934;2023-05-02T04:50:32;100159.16;;;13.63;64.79
70841;BME280;58465;51.534;9.934;2023-05-02T04:53:04;100152.16;;;13.57;64.61
70841;BME280;58465;51.534;9.934;2023-05-02T04:55:35;100162.06;;;13.55;64.87
70841;BME280;58465;51.534;9.934;2023-05-02T04:58:02;100166.63;;;13.53;65.01
70841;BME280;58465;51.534;9.934;2023-05-02T05:00:28;100160.25;;;13.56;65.02
70841;BME280;58465;51.534;9.934;2023-05-02T05:02:54;100177.97;;;13.61;65.00
70841;BME280;58465;51.534;9.934;2023-05-02T05:05:19;100180.97;;;13.52;65.12
70841;BME280;58465;51.534;9.934;2023-05-02T05:07:45;100189.09;;;13.49;65.23
70841;BME280;58465;51.534;9.934;2023-05-02T05:10:10;100181.06;;;13.49;65.28
70841;BME280;58465;51.534;9.934;2023-05-02T05:12:41;100189.69;;;13.59;65.13
70841;BME280;58465;51.534;9.934;2023-05-02T05:15:07;100192.94;;;13.68;64.92
70841;BME280;58465;51.534;9.934;2023-05-02T05:17:32;100190.00;;;13.76;64.73
70841;BME280;58465;51.534;9.934;2023-05-02T05:19:58;100190.00;;;13.76;64.71
70841;BME280;58465;51.534;9.934;2023-05-02T05:22:26;100196.13;;;13.81;64.33
70841;BME280;58465;51.534;9.934;2023-05-02T05:24:54;100203.06;;;13.87;64.35
70841;BME280;58465;51.534;9.934;2023-05-02T05:27:20;100203.75;;;13.93;64.28
70841;BME280;58465;51.534;9.934;2023-05-02T05:29:46;100203.94;;;13.87;64.14
70841;BME280;58465;51.534;9.934;2023-05-02T05:32:11;100210.09;;;13.91;64.31
70841;BME280;58465;51.534;9.934;2023-05-02T05:34:37;100202.00;;;13.92;64.53
70841;BME280;58465;51.534;9.934;2023-05-02T05:40:25;100217.25;;;13.92;64.96
70841;BME280;58465;51.534;9.934;2023-05-02T05:42:50;100212.63;;;13.95;64.42
70841;BME280;58465;51.534;9.934;2023-05-02T05:45:16;100222.56;;;13.93;64.59
70841;BME280;58465;51.534;9.934;2023-05-02T05:47:43;100225.28;;;13.92;65.02
70841;BME280;58465;51.534;9.934;2023-05-02T05:50:08;100231.28;;;14.00;64.52
70841;BME280;58465;51.534;9.934;2023-05-02T05:52:35;100229.34;;;14.03;64.60
70841;BME280;58465;51.534;9.934;2023-05-02T05:55:01;100226.88;;;13.97;64.92
70841;BME280;58465;51.534;9.934;2023-05-02T05:57:28;100226.09;;;13.94;65.28
70841;BME280;58465;51.534;9.934;2023-05-02T05:59:55;100233.19;;;13.96;65.24
70841;BME280;58465;51.534;9.934;2023-05-02T06:02:20;100237.53;;;14.00;65.12
70841;BME280;58465;51.534;9.934;2023-05-02T06:04:45;100233.13;;;13.98;65.73
70841;BME280;58465;51.534;9.934;2023-05-02T06:07:10;100232.25;;;13.97;65.65
70841;BME280;58465;51.534;9.934;2023-05-02T06:09:36;100246.25;;;14.07;65.19
70841;BME280;58465;51.534;9.934;2023-05-02T06:12:01;100245.19;;;14.13;65.10
70841;BME280;58465;51.534;9.934;2023-05-02T06:14:27;100253.13;;;14.16;65.11
70841;BME280;58465;51.534;9.934;2023-05-02T06:16:52;100253.81;;;14.22;65.00
70841;BME280;58465;51.534;9.934;2023-05-02T06:19:18;100255.53;;;14.23;64.58
70841;BME280;58465;51.534;9.934;2023-05-02T06:21:43;100257.53;;;14.18;64.82
70841;BME280;58465;51.534;9.934;2023-05-02T06:24:08;100272.75;;;14.18;64.70
70841;BME280;58465;51.534;9.934;2023-05-02T06:26:34;100264.53;;;13.96;65.28
70841;BME280;58465;51.534;9.934;2023-05-02T06:28:59;100272.56;;;13.96;65.39
70841;BME280;58465;51.534;9.934;2023-05-02T06:31:25;100267.56;;;13.85;65.29
70841;BME280;58465;51.534;9.934;2023-05-02T06:33:50;100280.19;;;13.83;65.70
70841;BME280;58465;51.534;9.934;2023-05-02T06:36:16;100281.78;;;13.89;65.40
70841;BME280;58465;51.534;9.934;2023-05-02T06:38:41;100281.84;;;14.13;64.43
70841;BME280;58465;51.534;9.934;2023-05-02T06:47:51;100299.56;;;14.47;62.61
70841;BME280;58465;51.534;9.934;2023-05-02T06:50:17;100298.41;;;14.54;62.20
70841;BME280;58465;51.534;9.934;2023-05-02T06:52:42;100303.25;;;14.43;62.65
70841;BME280;58465;51.534;9.934;2023-05-02T06:55:08;100312.25;;;14.42;62.70
70841;BME280;58465;51.534;9.934;2023-05-02T06:57:33;100318.28;;;14.50;62.51
70841;BME280;58465;51.534;9.934;2023-05-02T06:59:59;100321.94;;;14.72;61.81
70841;BME280;58465;51.534;9.934;2023-05-02T07:02:25;100320.41;;;14.65;61.96
70841;BME280;58465;51.534;9.934;2023-05-02T07:04:50;100314.94;;;14.68;61.61
70841;BME280;58465;51.534;9.934;2023-05-02T07:07:16;100326.53;;;14.70;61.68
70841;BME280;58465;51.534;9.934;2023-05-02T07:09:42;100327.84;;;14.83;61.54
70841;BME280;58465;51.534;9.934;2023-05-02T07:12:08;100325.59;;;14.96;61.10
70841;BME280;58465;51.534;9.934;2023-05-02T07:14:51;100329.91;;;15.25;59.37
70841;BME280;58465;51.534;9.934;2023-05-02T07:17:17;100333.78;;;15.18;57.93
70841;BME280;58465;51.534;9.934;2023-05-02T07:19:42;100334.94;;;15.09;59.04
70841;BME280;58465;51.534;9.934;2023-05-02T07:22:12;100351.00;;;14.88;60.70
70841;BME280;58465;51.534;9.934;2023-05-02T07:24:39;100349.84;;;14.70;63.23
70841;BME280;58465;51.534;9.934;2023-05-02T07:27:07;100362.38;;;14.43;63.89
70841;BME280;58465;51.534;9.934;2023-05-02T07:29:33;100355.69;;;14.28;64.42
70841;BME280;58465;51.534;9.934;2023-05-02T07:31:59;100351.19;;;14.29;65.07
70841;BME280;58465;51.534;9.934;2023-05-02T07:37:47;100363.78;;;14.27;65.77
70841;BME280;58465;51.534;9.934;2023-05-02T07:40:13;100359.72;;;14.13;65.95
70841;BME280;58465;51.534;9.934;2023-05-02T07:42:38;100367.06;;;14.08;67.12
70841;BME280;58465;51.534;9.934;2023-05-02T07:45:06;100359.50;;;14.21;66.91
70841;BME280;58465;51.534;9.934;2023-05-02T07:47:32;100366.75;;;14.47;66.45
70841;BME280;58465;51.534;9.934;2023-05-02T07:49:57;100371.63;;;14.33;66.78
70841;BME280;58465;51.534;9.934;2023-05-02T07:52:23;100379.56;;;14.37;67.99
70841;BME280;58465;51.534;9.934;2023-05-02T07:57:44;100371.81;;;14.28;68.56
70841;BME280;58465;51.534;9.934;2023-05-02T08:00:10;100382.50;;;14.30;67.07
70841;BME280;58465;51.534;9.934;2023-05-02T08:02:35;100381.88;;;14.22;68.40
70841;BME280;58465;51.534;9.934;2023-05-02T08:05:02;100393.00;;;14.37;67.33
70841;BME280;58465;51.534;9.934;2023-05-02T08:07:27;100390.22;;;14.68;67.03
70841;BME280;58465;51.534;9.934;2023-05-02T08:09:53;100392.94;;;14.93;66.66
70841;BME280;58465;51.534;9.934;2023-05-02T08:12:18;100403.53;;;14.71;65.84
70841;BME280;58465;51.534;9.934;2023-05-02T08:18:09;100405.59;;;14.07;70.05
70841;BME280;58465;51.534;9.934;2023-05-02T08:20:34;100404.47;;;13.85;71.61
70841;BME280;58465;51.534;9.934;2023-05-02T08:23:02;100411.81;;;13.80;72.31
70841;BME280;58465;51.534;9.934;2023-05-02T08:25:27;100414.53;;;13.79;73.06
70841;BME280;58465;51.534;9.934;2023-05-02T08:27:56;100426.88;;;13.55;73.97
70841;BME280;58465;51.534;9.934;2023-05-02T08:30:21;100447.13;;;12.64;73.51
70841;BME280;58465;51.534;9.934;2023-05-02T08:32:49;100443.91;;;12.12;73.98
70841;BME280;58465;51.534;9.934;2023-05-02T08:35:16;100444.66;;;11.78;75.05
70841;BME280;58465;51.534;9.934;2023-05-02T08:37:41;100460.16;;;11.61;75.63
70841;BME280;58465;51.534;9.934;2023-05-02T08:40:10;100460.88;;;11.68;75.95
70841;BME280;58465;51.534;9.934;2023-05-02T08:42:41;100465.06;;;11.82;75.82
70841;BME280;58465;51.534;9.934;2023-05-02T08:45:08;100474.91;;;11.82;75.26
70841;BME280;58465;51.534;9.934;2023-05-02T08:47:39;100474.06;;;11.34;74.99
70841;BME280;58465;51.534;9.934;2023-05-02T08:50:05;100495.81;;;11.14;76.04
70841;BME280;58465;51.534;9.934;2023-05-02T08:52:31;100497.41;;;11.24;77.35
70841;BME280;58465;51.534;9.934;2023-05-02T08:54:59;100506.66;;;11.05;78.87
70841;BME280;58465;51.534;9.934;2023-05-02T08:57:27;100510.47;;;10.90;79.43
70841;BME280;58465;51.534;9.934;2023-05-02T08:59:53;100498.19;;;10.77;80.23
70841;BME280;58465;51.534;9.934;2023-05-02T09:05:32;100523.16;;;11.30;80.80
70841;BME280;58465;51.534;9.934;2023-05-02T09:08:00;100520.31;;;11.37;79.67
70841;BME280;58465;51.534;9.934;2023-05-02T09:13:48;100537.63;;;11.16;79.80
70841;BME280;58465;51.534;9.934;2023-05-02T09:16:20;100552.63;;;11.25;79.99
70841;BME280;58465;51.534;9.934;2023-05-02T09:18:56;100544.84;;;11.13;80.24
70841;BME280;58465;51.534;9.934;2023-05-02T09:21:39;100549.06;;;11.25;80.51
70841;BME280;58465;51.534;9.934;2023-05-02T09:24:16;100554.50;;;11.20;79.09
70841;BME280;58465;51.534;9.934;2023-05-02T09:26:43;100541.47;;;11.00;79.52
70841;BME280;58465;51.534;9.934;2023-05-02T09:29:21;100554.56;;;11.15;79.21
70841;BME280;58465;51.534;9.934;2023-05-02T09:31:47;100568.75;;;11.21;79.60
70841;BME280;58465;51.534;9.934;2023-05-02T09:34:15;100571.69;;;11.56;79.90
70841;BME280;58465;51.534;9.934;2023-05-02T09:36:43;100577.94;;;11.55;78.70
70841;BME280;58465;51.534;9.934;2023-05-02T09:39:11;100569.34;;;11.38;78.27
70841;BME280;58465;51.534;9.934;2023-05-02T09:41:45;100580.34;;;11.21;78.90
70841;BME280;58465;51.534;9.934;2023-05-02T09:44:16;100588.38;;;11.20;79.19
70841;BME280;58465;51.534;9.934;2023-05-02T09:46:55;100585.41;;;11.38;79.79
70841;BME280;58465;51.534;9.934;2023-05-02T09:49:59;100592.25;;;11.54;78.54
70841;BME280;58465;51.534;9.934;2023-05-02T09:52:24;100587.78;;;12.02;78.49
70841;BME280;58465;51.534;9.934;2023-05-02T09:54:50;100594.00;;;12.49;76.55
70841;BME280;58465;51.534;9.934;2023-05-02T09:57:16;100598.72;;;12.78;74.33
70841;BME280;58465;51.534;9.934;2023-05-02T09:59:58;100589.31;;;12.58;73.03
70841;BME280;58465;51.534;9.934;2023-05-02T10:02:24;100597.16;;;12.68;72.97
70841;BME280;58465;51.534;9.934;2023-05-02T10:04:52;100610.44;;;12.72;72.41
70841;BME280;58465;51.534;9.934;2023-05-02T10:07:18;100604.53;;;12.56;71.33
70841;BME280;58465;51.534;9.934;2023-05-02T10:16:37;100591.88;;;13.38;66.93
70841;BME280;58465;51.534;9.934;2023-05-02T10:19:13;100597.72;;;13.88;63.94
70841;BME280;58465;51.534;9.934;2023-05-02T10:21:45;100601.97;;;13.97;63.43
70841;BME280;58465;51.534;9.934;2023-05-02T10:24:11;100618.63;;;14.09;63.31
70841;BME280;58465;51.534;9.934;2023-05-02T10:26:53;100613.66;;;14.27;63.20
70841;BME280;58465;51.534;9.934;2023-05-02T10:32:22;100623.53;;;14.88;60.53
70841;BME280;58465;51.534;9.934;2023-05-02T10:34:50;100626.06;;;14.63;59.89
70841;BME280;58465;51.534;9.934;2023-05-02T10:37:17;100636.44;;;14.75;59.96
70841;BME280;58465;51.534;9.934;2023-05-02T10:40:11;100631.25;;;14.40;59.68
70841;BME280;58465;51.534;9.934;2023-05-02T10:42:42;100621.72;;;13.94;61.29
70841;BME280;58465;51.534;9.934;2023-05-02T10:45:11;100631.25;;;14.38;61.52
70841;BME280;58465;51.534;9.934;2023-05-02T10:47:37;100624.19;;;14.95;58.90
70841;BME280;58465;51.534;9.934;2023-05-02T10:50:03;100630.72;;;14.88;57.71
70841;BME280;58465;51.534;9.934;2023-05-02T10:56:14;100626.47;;;14.17;59.15
70841;BME280;58465;51.534;9.934;2023-05-02T10:58:41;100630.56;;;13.99;59.62
70841;BME280;58465;51.534;9.934;2023-05-02T11:04:15;100640.00;;;13.82;60.50
70841;BME280;58465;51.534;9.934;2023-05-02T11:11:50;100643.28;;;14.24;58.90
70841;BME280;58465;51.534;9.934;2023-05-02T11:14:47;100645.56;;;14.06;57.76
70841;BME280;58465;51.534;9.934;2023-05-02T11:17:15;100642.53;;;13.86;58.46
70841;BME280;58465;51.534;9.934;2023-05-02T11:22:32;100638.94;;;13.87;58.82
70841;BME280;58465;51.534;9.934;2023-05-02T11:24:58;100641.47;;;13.93;59.47
70841;BME280;58465;51.534;9.934;2023-05-02T11:30:44;100645.50;;;14.09;58.57
70841;BME280;58465;51.534;9.934;2023-05-02T11:33:13;100648.94;;;14.15;58.18
70841;BME280;58465;51.534;9.934;2023-05-02T11:35:41;100650.28;;;14.31;58.54
70841;BME280;58465;51.534;9.934;2023-05-02T11:38:10;100643.22;;;13.94;58.84
70841;BME280;58465;51.534;9.934;2023-05-02T11:40:35;100652.03;;;13.65;59.77
70841;BME280;58465;51.534;9.934;2023-05-02T11:43:14;100659.19;;;13.29;60.35
70841;BME280;58465;51.534;9.934;2023-05-02T11:45:40;100661.78;;;13.34;60.93
70841;BME280;58465;51.534;9.934;2023-05-02T11:48:07;100658.66;;;13.15;61.10
70841;BME280;58465;51.534;9.934;2023-05-02T11:50:40;100666.06;;;13.01;61.31
70841;BME280;58465;51.534;9.934;2023-05-02T11:53:09;100665.44;;;12.90;61.43
70841;BME280;58465;51.534;9.934;2023-05-02T11:59:00;100661.31;;;13.52;60.06
70841;BME280;58465;51.534;9.934;2023-05-02T12:01:49;100673.44;;;13.31;60.09
70841;BME280;58465;51.534;9.934;2023-05-02T12:04:15;100677.13;;;13.27;60.06
70841;BME280;58465;51.534;9.934;2023-05-02T12:06:53;100687.59;;;12.98;59.94
70841;BME280;58465;51.534;9.934;2023-05-02T12:09:18;100687.06;;;12.81;61.18
70841;BME280;58465;51.534;9.934;2023-05-02T12:11:53;100690.94;;;12.68;61.08
70841;BME280;58465;51.534;9.934;2023-05-02T12:14:26;100691.97;;;12.60;61.74
70841;BME280;58465;51.534;9.934;2023-05-02T12:16:52;100693.47;;;12.75;61.35
70841;BME280;58465;51.534;9.934;2023-05-02T12:29:14;100708.88;;;12.64;61.46
70841;BME280;58465;51.534;9.934;2023-05-02T12:31:49;100711.91;;;12.89;61.37
70841;BME280;58465;51.534;9.934;2023-05-02T12:34:31;100708.94;;;13.04;60.04
70841;BME280;58465;51.534;9.934;2023-05-02T12:36:56;100703.81;;;13.33;59.45
70841;BME280;58465;51.534;9.934;2023-05-02T12:39:33;100715.47;;;13.69;58.78
70841;BME280;58465;51.534;9.934;2023-05-02T12:42:22;100720.19;;;13.21;58.51
70841;BME280;58465;51.534;9.934;2023-05-02T12:44:53;100723.81;;;12.77;60.33
70841;BME280;58465;51.534;9.934;2023-05-02T12:47:43;100723.69;;;12.82;60.34
70841;BME280;58465;51.534;9.934;2023-05-02T12:50:13;100729.03;;;12.83;59.85
70841;BME280;58465;51.534;9.934;2023-05-02T12:59:28;100737.91;;;12.87;58.50
70841;BME280;58465;51.534;9.934;2023-05-02T13:01:55;100746.78;;;12.89;58.38
70841;BME280;58465;51.534;9.934;2023-05-02T13:04:21;100754.09;;;12.81;58.89
70841;BME280;58465;51.534;9.934;2023-05-02T13:06:57;100750.47;;;12.83;59.38
70841;BME280;58465;51.534;9.934;2023-05-02T13:09:23;100764.41;;;13.00;58.48
70841;BME280;58465;51.534;9.934;2023-05-02T13:11:48;100770.22;;;12.79;58.33
70841;BME280;58465;51.534;9.934;2023-05-02T13:14:14;100768.84;;;12.58;59.11
70841;BME280;58465;51.534;9.934;2023-05-02T13:16:39;100779.50;;;12.61;59.01
70841;BME280;58465;51.534;9.934;2023-05-02T13:19:05;100767.88;;;12.61;58.85
70841;BME280;58465;51.534;9.934;2023-05-02T13:21:31;100780.03;;;12.80;58.25
70841;BME280;58465;51.534;9.934;2023-05-02T13:23:58;100767.44;;;12.84;57.93
70841;BME280;58465;51.534;9.934;2023-05-02T13:26:47;100785.75;;;12.60;58.30
70841;BME280;58465;51.534;9.934;2023-05-02T13:29:13;100775.03;;;12.62;58.65
70841;BME280;58465;51.534;9.934;2023-05-02T13:31:39;100778.53;;;12.66;57.89
70841;BME280;58465;51.534;9.934;2023-05-02T13:34:05;100779.59;;;12.57;58.16
70841;BME280;58465;51.534;9.934;2023-05-02T13:36:31;100781.13;;;12.70;57.38
70841;BME280;58465;51.534;9.934;2023-05-02T13:38:56;100781.31;;;13.06;57.03
70841;BME280;58465;51.534;9.934;2023-05-02T13:41:21;100781.06;;;13.18;55.91
70841;BME280;58465;51.534;9.934;2023-05-02T13:43:48;100790.31;;;13.45;55.57
70841;BME280;58465;51.534;9.934;2023-05-02T13:46:14;100786.69;;;13.46;55.07
70841;BME280;58465;51.534;9.934;2023-05-02T13:48:39;100790.81;;;13.62;54.79
70841;BME280;58465;51.534;9.934;2023-05-02T13:51:05;100786.44;;;13.58;54.71
70841;BME280;58465;51.534;9.934;2023-05-02T13:53:30;100790.31;;;13.83;54.39
70841;BME280;58465;51.534;9.934;2023-05-02T13:55:59;100789.22;;;13.92;53.83
70841;BME280;58465;51.534;9.934;2023-05-02T13:58:25;100800.75;;;13.57;54.08
70841;BME280;58465;51.534;9.934;2023-05-02T14:00:51;100803.91;;;13.75;53.98
70841;BME280;58465;51.534;9.934;2023-05-02T14:03:17;100804.34;;;13.94;53.12
70841;BME280;58465;51.534;9.934;2023-05-02T14:05:42;100807.44;;;13.78;53.79
70841;BME280;58465;51.534;9.934;2023-05-02T14:08:10;100797.16;;;13.58;53.80
70841;BME280;58465;51.534;9.934;2023-05-02T14:10:36;100803.84;;;13.38;55.23
70841;BME280;58465;51.534;9.934;2023-05-02T14:13:03;100806.56;;;13.37;54.34
70841;BME280;58465;51.534;9.934;2023-05-02T14:15:28;100811.78;;;13.45;54.36
70841;BME280;58465;51.534;9.934;2023-05-02T14:18:04;100799.94;;;13.55;54.13
70841;BME280;58465;51.534;9.934;2023-05-02T14:20:30;100808.28;;;13.80;53.25
70841;BME280;58465;51.534;9.934;2023-05-02T14:22:55;100801.09;;;13.82;52.52
70841;BME280;58465;51.534;9.934;2023-05-02T14:25:20;100799.19;;;14.22;52.04
70841;BME280;58465;51.534;9.934;2023-05-02T14:27:46;100801.06;;;14.87;50.99
70841;BME280;58465;51.534;9.934;2023-05-02T14:30:15;100793.94;;;15.16;49.16
70841;BME280;58465;51.534;9.934;2023-05-02T14:32:50;100795.56;;;15.51;47.97
70841;BME280;58465;51.534;9.934;2023-05-02T14:35:16;100803.09;;;15.70;47.63
70841;BME280;58465;51.534;9.934;2023-05-02T14:37:41;100797.31;;;16.10;45.86
70841;BME280;58465;51.534;9.934;2023-05-02T14:40:09;100795.69;;;16.04;45.51
70841;BME280;58465;51.534;9.934;2023-05-02T14:42:40;100801.91;;;16.06;45.17